sensor_id;sensor_type;location;lat;lon;timestamp;temperature;humidity
26589;DHT22;14235;48.532;8.722;2022-10-16T02:20:20;14.00;99.90
26589;DHT22;14235;48.532;8.722;2022-10-16T02:22:48;14.20;99.90
26589;DHT22;14235;48.532;8.722;2022-10-16T02:27:50;14.20;99.90
26589;DHT22;14235;48.532;8.722;2022-10-16T02:30:30;14.10;99.90
26589;DHT22;14235;48.532;8.722;2022-10-16T02:33:00;14.20;99.90
26589;DHT22;14235;48.532;8.722;2022-10-16T02:35:27;14.30;99.90
26589;DHT22;14235;48.532;8.722;2022-10-16T02:37:53;14.20;99.90
26589;DHT22;14235;48.532;8.722;2022-10-16T02:40:20;14.30;99.90
26589;DHT22;14235;48.532;8.722;2022-10-16T02:42:50;14.40;99.90
26589;DHT22;14235;48.532;8.722;2022-10-16T02:45:17;14.20;99.90
26589;DHT22;14235;48.532;8.722;2022-10-16T02:47:42;14.40;99.90
26589;DHT22;14235;48.532;8.722;2022-10-16T02:50:08;14.20;99.90
26589;DHT22;14235;48.532;8.722;2022-10-16T02:52:34;14.00;99.90
26589;DHT22;14235;48.532;8.722;2022-10-16T02:55:00;14.20;99.90
26589;DHT22;14235;48.532;8.722;2022-10-16T02:57:25;14.20;99.90
26589;DHT22;14235;48.532;8.722;2022-10-16T02:59:51;14.10;99.90
26589;DHT22;14235;48.532;8.722;2022-10-16T03:02:16;14.00;99.90
26589;DHT22;14235;48.532;8.722;2022-10-16T03:04:42;14.10;99.90
26589;DHT22;14235;48.532;8.722;2022-10-16T03:07:08;14.10;99.90
26589;DHT22;14235;48.532;8.722;2022-10-16T03:09:33;14.00;99.90
26589;DHT22;14235;48.532;8.722;2022-10-16T03:11:59;14.00;99.90
26589;DHT22;14235;48.532;8.722;2022-10-16T03:14:25;14.00;99.90
26589;DHT22;14235;48.532;8.722;2022-10-16T03:16:50;13.90;99.90
26589;DHT22;14235;48.532;8.722;2022-10-16T03:19:17;14.20;99.90
26589;DHT22;14235;48.532;8.722;2022-10-16T03:21:43;13.90;99.90
26589;DHT22;14235;48.532;8.722;2022-10-16T03:24:09;13.90;99.90
26589;DHT22;14235;48.532;8.722;2022-10-16T03:26:34;14.20;99.90
26589;DHT22;14235;48.532;8.722;2022-10-16T03:29:00;14.40;99.90
26589;DHT22;14235;48.532;8.722;2022-10-16T03:31:27;14.30;99.90
26589;DHT22;14235;48.532;8.722;2022-10-16T03:33:53;14.00;99.90
26589;DHT22;14235;48.532;8.722;2022-10-16T03:36:18;14.10;99.90
26589;DHT22;14235;48.532;8.722;2022-10-16T03:38:44;14.00;99.90
26589;DHT22;14235;48.532;8.722;2022-10-16T03:41:09;13.90;99.90
26589;DHT22;14235;48.532;8.722;2022-10-16T03:43:35;14.20;99.90
26589;DHT22;14235;48.532;8.722;2022-10-16T03:46:01;14.10;99.90
26589;DHT22;14235;48.532;8.722;2022-10-16T03:48:26;14.10;99.90
26589;DHT22;14235;48.532;8.722;2022-10-16T03:50:52;14.00;99.90
26589;DHT22;14235;48.532;8.722;2022-10-16T03:53:17;14.10;99.90
26589;DHT22;14235;48.532;8.722;2022-10-16T03:55:43;14.00;99.90
26589;DHT22;14235;48.532;8.722;2022-10-16T03:58:10;13.90;99.90
26589;DHT22;14235;48.532;8.722;2022-10-16T04:00:36;14.00;99.90
26589;DHT22;14235;48.532;8.722;2022-10-16T04:03:04;14.20;99.90
26589;DHT22;14235;48.532;8.722;2022-10-16T04:05:30;14.10;99.90
26589;DHT22;14235;48.532;8.722;2022-10-16T04:07:55;14.00;99.90
26589;DHT22;14235;48.532;8.722;2022-10-16T04:10:21;13.90;99.90
26589;DHT22;14235;48.532;8.722;2022-10-16T04:12:47;13.90;99.90
26589;DHT22;14235;48.532;8.722;2022-10-16T04:15:12;13.80;99.90
26589;DHT22;14235;48.532;8.722;2022-10-16T04:17:38;13.90;99.90
26589;DHT22;14235;48.532;8.722;2022-10-16T04:20:04;14.00;99.90
26589;DHT22;14235;48.532;8.722;2022-10-16T04:22:30;14.00;99.90
26589;DHT22;14235;48.532;8.722;2022-10-16T04:24:55;14.00;99.90
26589;DHT22;14235;48.532;8.722;2022-10-16T04:27:21;14.00;99.90
26589;DHT22;14235;48.532;8.722;2022-10-16T04:29:46;14.10;99.90
26589;DHT22;14235;48.532;8.722;2022-10-16T04:32:12;13.90;99.90
26589;DHT22;14235;48.532;8.722;2022-10-16T04:34:39;14.00;99.90
26589;DHT22;14235;48.532;8.722;2022-10-16T04:37:04;13.80;99.90
26589;DHT22;14235;48.532;8.722;2022-10-16T04:39:30;14.20;99.90
26589;DHT22;14235;48.532;8.722;2022-10-16T04:41:56;14.00;99.90
26589;DHT22;14235;48.532;8.722;2022-10-16T04:44:21;14.10;99.90
26589;DHT22;14235;48.532;8.722;2022-10-16T04:46:47;13.80;99.90
26589;DHT22;14235;48.532;8.722;2022-10-16T04:49:13;13.90;99.90
26589;DHT22;14235;48.532;8.722;2022-10-16T04:51:38;14.40;99.90
26589;DHT22;14235;48.532;8.722;2022-10-16T04:54:04;13.80;99.90
26589;DHT22;14235;48.532;8.722;2022-10-16T04:56:29;13.90;99.90
26589;DHT22;14235;48.532;8.722;2022-10-16T04:58:55;13.80;99.90
26589;DHT22;14235;48.532;8.722;2022-10-16T05:01:20;13.80;99.90
26589;DHT22;14235;48.532;8.722;2022-10-16T05:03:46;13.70;99.90
26589;DHT22;14235;48.532;8.722;2022-10-16T05:06:12;13.70;99.90
26589;DHT22;14235;48.532;8.722;2022-10-16T05:08:37;13.70;99.90
26589;DHT22;14235;48.532;8.722;2022-10-16T05:11:03;13.60;99.90
26589;DHT22;14235;48.532;8.722;2022-10-16T05:13:28;13.60;99.90
26589;DHT22;14235;48.532;8.722;2022-10-16T05:15:54;13.60;99.90
26589;DHT22;14235;48.532;8.722;2022-10-16T05:18:20;14.00;99.90
26589;DHT22;14235;48.532;8.722;2022-10-16T05:20:45;13.60;99.90
26589;DHT22;14235;48.532;8.722;2022-10-16T05:23:11;13.60;99.90
26589;DHT22;14235;48.532;8.722;2022-10-16T05:25:37;13.60;99.90
26589;DHT22;14235;48.532;8.722;2022-10-16T05:28:03;13.50;99.90
26589;DHT22;14235;48.532;8.722;2022-10-16T05:30:28;13.60;99.90
26589;DHT22;14235;48.532;8.722;2022-10-16T05:32:54;13.90;99.90
26589;DHT22;14235;48.532;8.722;2022-10-16T05:35:20;13.70;99.90
26589;DHT22;14235;48.532;8.722;2022-10-16T05:37:46;13.70;99.90
26589;DHT22;14235;48.532;8.722;2022-10-16T05:40:12;13.60;99.90
26589;DHT22;14235;48.532;8.722;2022-10-16T05:42:38;13.60;99.90
26589;DHT22;14235;48.532;8.722;2022-10-16T05:45:05;13.50;99.90
26589;DHT22;14235;48.532;8.722;2022-10-16T05:47:31;13.40;99.90
26589;DHT22;14235;48.532;8.722;2022-10-16T05:49:57;13.50;99.90
26589;DHT22;14235;48.532;8.722;2022-10-16T05:52:23;13.50;99.90
26589;DHT22;14235;48.532;8.722;2022-10-16T05:54:48;13.70;99.90
26589;DHT22;14235;48.532;8.722;2022-10-16T05:57:14;13.50;99.90
26589;DHT22;14235;48.532;8.722;2022-10-16T05:59:39;13.70;99.90
26589;DHT22;14235;48.532;8.722;2022-10-16T06:02:05;13.50;99.90
26589;DHT22;14235;48.532;8.722;2022-10-16T06:04:31;13.60;99.90
26589;DHT22;14235;48.532;8.722;2022-10-16T06:06:58;13.60;99.90
26589;DHT22;14235;48.532;8.722;2022-10-16T06:09:26;13.70;99.90
26589;DHT22;14235;48.532;8.722;2022-10-16T06:11:51;13.80;99.90
26589;DHT22;14235;48.532;8.722;2022-10-16T06:14:17;13.40;99.90
26589;DHT22;14235;48.532;8.722;2022-10-16T06:16:42;13.50;99.90
26589;DHT22;14235;48.532;8.722;2022-10-16T06:19:08;13.40;99.90
26589;DHT22;14235;48.532;8.722;2022-10-16T06:21:34;13.70;99.90
26589;DHT22;14235;48.532;8.722;2022-10-16T06:24:00;13.50;99.90
26589;DHT22;14235;48.532;8.722;2022-10-16T06:26:28;13.60;99.90
26589;DHT22;14235;48.532;8.722;2022-10-16T06:28:55;13.40;99.90
26589;DHT22;14235;48.532;8.722;2022-10-16T06:31:22;13.80;99.90
26589;DHT22;14235;48.532;8.722;2022-10-16T06:33:50;13.60;99.90
26589;DHT22;14235;48.532;8.722;2022-10-16T06:36:17;13.90;99.90
26589;DHT22;14235;48.532;8.722;2022-10-16T06:38:43;13.50;99.90
26589;DHT22;14235;48.532;8.722;2022-10-16T06:41:12;13.50;99.90
26589;DHT22;14235;48.532;8.722;2022-10-16T06:43:38;13.50;99.90
26589;DHT22;14235;48.532;8.722;2022-10-16T06:46:05;13.40;99.90
26589;DHT22;14235;48.532;8.722;2022-10-16T06:48:33;13.50;99.90
26589;DHT22;14235;48.532;8.722;2022-10-16T06:51:13;13.50;99.90
26589;DHT22;14235;48.532;8.722;2022-10-16T06:53:41;13.80;99.90
26589;DHT22;14235;48.532;8.722;2022-10-16T06:56:09;13.60;99.90
26589;DHT22;14235;48.532;8.722;2022-10-16T06:58:35;13.70;99.90
26589;DHT22;14235;48.532;8.722;2022-10-16T07:01:00;13.70;99.90
26589;DHT22;14235;48.532;8.722;2022-10-16T07:03:26;13.60;99.90
26589;DHT22;14235;48.532;8.722;2022-10-16T07:05:51;13.70;99.90
26589;DHT22;14235;48.532;8.722;2022-10-16T07:08:17;13.70;99.90
26589;DHT22;14235;48.532;8.722;2022-10-16T07:10:43;13.70;99.90
26589;DHT22;14235;48.532;8.722;2022-10-16T07:13:08;13.70;99.90
26589;DHT22;14235;48.532;8.722;2022-10-16T07:15:34;13.70;99.90
26589;DHT22;14235;48.532;8.722;2022-10-16T07:17:59;13.70;99.90
26589;DHT22;14235;48.532;8.722;2022-10-16T07:20:25;13.80;99.90
26589;DHT22;14235;48.532;8.722;2022-10-16T07:22:51;14.00;99.90
26589;DHT22;14235;48.532;8.722;2022-10-16T07:25:17;14.00;99.90
26589;DHT22;14235;48.532;8.722;2022-10-16T07:27:43;14.00;99.90
26589;DHT22;14235;48.532;8.722;2022-10-16T07:30:09;14.10;99.90
26589;DHT22;14235;48.532;8.722;2022-10-16T07:32:34;14.00;99.90
26589;DHT22;14235;48.532;8.722;2022-10-16T07:35:00;14.20;99.90
26589;DHT22;14235;48.532;8.722;2022-10-16T07:37:26;14.10;99.90
26589;DHT22;14235;48.532;8.722;2022-10-16T07:39:51;14.00;99.90
26589;DHT22;14235;48.532;8.722;2022-10-16T07:42:17;13.90;99.90
26589;DHT22;14235;48.532;8.722;2022-10-16T07:44:42;14.30;99.90
26589;DHT22;14235;48.532;8.722;2022-10-16T07:47:08;14.20;99.90
26589;DHT22;14235;48.532;8.722;2022-10-16T07:49:34;14.10;99.90
26589;DHT22;14235;48.532;8.722;2022-10-16T07:51:59;14.20;99.90
26589;DHT22;14235;48.532;8.722;2022-10-16T07:54:25;14.40;99.90
26589;DHT22;14235;48.532;8.722;2022-10-16T07:56:50;14.50;99.90
26589;DHT22;14235;48.532;8.722;2022-10-16T07:59:16;14.40;99.90
26589;DHT22;14235;48.532;8.722;2022-10-16T08:01:42;14.50;99.90
26589;DHT22;14235;48.532;8.722;2022-10-16T08:04:08;14.40;99.90
26589;DHT22;14235;48.532;8.722;2022-10-16T08:06:39;14.60;99.90
26589;DHT22;14235;48.532;8.722;2022-10-16T08:09:05;14.60;99.90
26589;DHT22;14235;48.532;8.722;2022-10-16T08:11:31;14.60;99.90
26589;DHT22;14235;48.532;8.722;2022-10-16T08:13:57;14.70;99.90
26589;DHT22;14235;48.532;8.722;2022-10-16T08:16:23;14.60;99.90
26589;DHT22;14235;48.532;8.722;2022-10-16T08:18:48;14.60;99.90
26589;DHT22;14235;48.532;8.722;2022-10-16T08:21:18;14.80;99.90
26589;DHT22;14235;48.532;8.722;2022-10-16T08:23:44;14.70;99.90
26589;DHT22;14235;48.532;8.722;2022-10-16T08:26:10;14.70;99.90
26589;DHT22;14235;48.532;8.722;2022-10-16T08:28:37;14.70;99.90
26589;DHT22;14235;48.532;8.722;2022-10-16T08:31:14;14.90;99.90
26589;DHT22;14235;48.532;8.722;2022-10-16T08:33:42;15.20;99.90
26589;DHT22;14235;48.532;8.722;2022-10-16T08:36:10;14.90;99.90
26589;DHT22;14235;48.532;8.722;2022-10-16T08:38:35;14.90;99.90
26589;DHT22;14235;48.532;8.722;2022-10-16T08:41:27;15.00;99.90
26589;DHT22;14235;48.532;8.722;2022-10-16T08:49:14;14.90;99.90
26589;DHT22;14235;48.532;8.722;2022-10-16T08:51:40;15.00;99.90
26589;DHT22;14235;48.532;8.722;2022-10-16T08:54:26;14.90;99.90
26589;DHT22;14235;48.532;8.722;2022-10-16T08:57:11;15.10;99.90
26589;DHT22;14235;48.532;8.722;2022-10-16T08:59:37;15.10;99.90
26589;DHT22;14235;48.532;8.722;2022-10-16T09:13:27;15.30;99.90
26589;DHT22;14235;48.532;8.722;2022-10-16T09:18:41;15.50;99.90
26589;DHT22;14235;48.532;8.722;2022-10-16T09:21:14;15.60;99.90
26589;DHT22;14235;48.532;8.722;2022-10-16T09:23:41;15.80;99.90
26589;DHT22;14235;48.532;8.722;2022-10-16T09:26:14;15.80;99.90
26589;DHT22;14235;48.532;8.722;2022-10-16T09:28:40;15.60;99.90
26589;DHT22;14235;48.532;8.722;2022-10-16T09:31:15;15.80;99.90
26589;DHT22;14235;48.532;8.722;2022-10-16T09:33:42;15.90;99.90
26589;DHT22;14235;48.532;8.722;2022-10-16T09:36:09;15.70;99.90
26589;DHT22;14235;48.532;8.722;2022-10-16T09:38:36;15.80;99.90
26589;DHT22;14235;48.532;8.722;2022-10-16T09:41:20;15.80;99.90
26589;DHT22;14235;48.532;8.722;2022-10-16T09:43:55;15.90;99.90
26589;DHT22;14235;48.532;8.722;2022-10-16T09:46:35;16.00;99.90
26589;DHT22;14235;48.532;8.722;2022-10-16T09:49:24;15.80;99.90
26589;DHT22;14235;48.532;8.722;2022-10-16T09:51:49;16.00;99.90
26589;DHT22;14235;48.532;8.722;2022-10-16T09:54:18;16.20;99.90
26589;DHT22;14235;48.532;8.722;2022-10-16T09:56:43;16.20;99.90
26589;DHT22;14235;48.532;8.722;2022-10-16T09:59:13;16.10;99.90
26589;DHT22;14235;48.532;8.722;2022-10-16T10:04:13;16.40;99.90
26589;DHT22;14235;48.532;8.722;2022-10-16T10:06:55;16.40;99.90
26589;DHT22;14235;48.532;8.722;2022-10-16T10:09:48;16.50;99.90
26589;DHT22;14235;48.532;8.722;2022-10-16T10:12:33;16.60;99.90
26589;DHT22;14235;48.532;8.722;2022-10-16T10:15:11;16.50;99.90
26589;DHT22;14235;48.532;8.722;2022-10-16T10:18:19;16.60;99.90
26589;DHT22;14235;48.532;8.722;2022-10-16T10:21:00;16.60;99.90
26589;DHT22;14235;48.532;8.722;2022-10-16T10:23:28;16.90;99.90
26589;DHT22;14235;48.532;8.722;2022-10-16T10:31:20;17.30;99.90
26589;DHT22;14235;48.532;8.722;2022-10-16T10:33:58;17.40;99.90
26589;DHT22;14235;48.532;8.722;2022-10-16T10:36:39;17.60;99.90
26589;DHT22;14235;48.532;8.722;2022-10-16T10:39:27;17.80;99.90
26589;DHT22;14235;48.532;8.722;2022-10-16T10:45:26;18.10;99.90
26589;DHT22;14235;48.532;8.722;2022-10-16T10:50:45;18.40;99.90
26589;DHT22;14235;48.532;8.722;2022-10-16T10:53:46;18.50;99.90
26589;DHT22;14235;48.532;8.722;2022-10-16T11:02:45;18.90;99.90
26589;DHT22;14235;48.532;8.722;2022-10-16T11:07:57;19.10;99.90
26589;DHT22;14235;48.532;8.722;2022-10-16T11:10:28;19.40;99.90
26589;DHT22;14235;48.532;8.722;2022-10-16T11:13:15;19.40;99.90
26589;DHT22;14235;48.532;8.722;2022-10-16T11:15:47;19.70;99.90
26589;DHT22;14235;48.532;8.722;2022-10-16T11:18:25;19.90;99.90
26589;DHT22;14235;48.532;8.722;2022-10-16T11:49:21;20.70;99.90
26589;DHT22;14235;48.532;8.722;2022-10-16T11:52:15;20.90;99.90
26589;DHT22;14235;48.532;8.722;2022-10-16T11:54:59;21.00;99.90
26589;DHT22;14235;48.532;8.722;2022-10-16T11:57:31;21.00;99.90
26589;DHT22;14235;48.532;8.722;2022-10-16T12:00:05;21.00;99.90
26589;DHT22;14235;48.532;8.722;2022-10-16T12:02:48;21.10;99.90
26589;DHT22;14235;48.532;8.722;2022-10-16T12:05:52;21.20;99.90
26589;DHT22;14235;48.532;8.722;2022-10-16T12:08:13;21.30;99.90
26589;DHT22;14235;48.532;8.722;2022-10-16T12:10:41;21.20;99.90
26589;DHT22;14235;48.532;8.722;2022-10-16T12:13:39;21.30;99.90
26589;DHT22;14235;48.532;8.722;2022-10-16T12:18:41;21.70;99.90
26589;DHT22;14235;48.532;8.722;2022-10-16T12:21:07;21.70;99.90
26589;DHT22;14235;48.532;8.722;2022-10-16T13:44:53;21.40;99.90
26589;DHT22;14235;48.532;8.722;2022-10-16T13:47:21;21.40;99.90
26589;DHT22;14235;48.532;8.722;2022-10-16T13:50:05;21.40;99.90
26589;DHT22;14235;48.532;8.722;2022-10-16T13:52:32;21.40;99.90
26589;DHT22;14235;48.532;8.722;2022-10-16T13:54:57;21.60;99.90
26589;DHT22;14235;48.532;8.722;2022-10-16T13:57:24;21.50;99.90
26589;DHT22;14235;48.532;8.722;2022-10-16T13:59:50;21.60;99.90
26589;DHT22;14235;48.532;8.722;2022-10-16T14:04:52;21.80;99.90
26589;DHT22;14235;48.532;8.722;2022-10-16T14:07:24;21.80;99.90
26589;DHT22;14235;48.532;8.722;2022-10-16T14:09:52;21.90;99.90
26589;DHT22;14235;48.532;8.722;2022-10-16T14:12:21;22.10;99.90
26589;DHT22;14235;48.532;8.722;2022-10-16T14:17:21;23.10;99.90
26589;DHT22;14235;48.532;8.722;2022-10-16T14:19:48;23.20;99.90
26589;DHT22;14235;48.532;8.722;2022-10-16T14:22:33;23.40;99.90
26589;DHT22;14235;48.532;8.722;2022-10-16T14:25:00;23.20;99.50
26589;DHT22;14235;48.532;8.722;2022-10-16T14:27:34;23.40;98.20
26589;DHT22;14235;48.532;8.722;2022-10-16T14:32:33;23.60;99.90
26589;DHT22;14235;48.532;8.722;2022-10-16T14:34:59;23.30;99.90
26589;DHT22;14235;48.532;8.722;2022-10-16T14:37:29;23.40;99.90
26589;DHT22;14235;48.532;8.722;2022-10-16T14:39:55;23.40;97.40
26589;DHT22;14235;48.532;8.722;2022-10-16T14:42:23;23.30;99.90
26589;DHT22;14235;48.532;8.722;2022-10-16T14:44:50;23.10;99.90
26589;DHT22;14235;48.532;8.722;2022-10-16T14:47:22;22.80;99.90
26589;DHT22;14235;48.532;8.722;2022-10-16T14:49:51;22.50;99.90
26589;DHT22;14235;48.532;8.722;2022-10-16T14:52:18;22.40;99.90
26589;DHT22;14235;48.532;8.722;2022-10-16T14:54:48;22.20;99.90
26589;DHT22;14235;48.532;8.722;2022-10-16T14:57:17;22.00;99.90
26589;DHT22;14235;48.532;8.722;2022-10-16T14:59:43;21.80;99.90
26589;DHT22;14235;48.532;8.722;2022-10-16T15:04:54;21.50;99.90
26589;DHT22;14235;48.532;8.722;2022-10-16T15:07:19;21.30;99.90
26589;DHT22;14235;48.532;8.722;2022-10-16T15:09:45;21.30;99.90
26589;DHT22;14235;48.532;8.722;2022-10-16T15:12:10;21.10;99.90
26589;DHT22;14235;48.532;8.722;2022-10-16T15:14:36;21.10;99.90
26589;DHT22;14235;48.532;8.722;2022-10-16T15:17:02;21.00;99.90
26589;DHT22;14235;48.532;8.722;2022-10-16T15:19:28;20.10;99.90
26589;DHT22;14235;48.532;8.722;2022-10-16T15:21:54;20.80;99.90
26589;DHT22;14235;48.532;8.722;2022-10-16T15:24:19;20.80;99.90
26589;DHT22;14235;48.532;8.722;2022-10-16T15:26:45;20.70;99.90
26589;DHT22;14235;48.532;8.722;2022-10-16T15:29:15;20.60;99.90
26589;DHT22;14235;48.532;8.722;2022-10-16T15:31:41;20.60;99.90
26589;DHT22;14235;48.532;8.722;2022-10-16T15:34:10;20.60;99.90
26589;DHT22;14235;48.532;8.722;2022-10-16T15:36:37;20.50;99.90
26589;DHT22;14235;48.532;8.722;2022-10-16T15:39:04;20.40;99.90
26589;DHT22;14235;48.532;8.722;2022-10-16T15:41:30;20.40;99.90
26589;DHT22;14235;48.532;8.722;2022-10-16T15:43:56;20.30;99.90
26589;DHT22;14235;48.532;8.722;2022-10-16T15:46:23;20.30;99.90
26589;DHT22;14235;48.532;8.722;2022-10-16T15:48:50;20.30;99.90
26589;DHT22;14235;48.532;8.722;2022-10-16T15:51:16;20.20;99.90
26589;DHT22;14235;48.532;8.722;2022-10-16T15:53:43;20.10;99.90
26589;DHT22;14235;48.532;8.722;2022-10-16T15:56:11;20.00;99.90
26589;DHT22;14235;48.532;8.722;2022-10-16T15:58:37;19.80;99.90
26589;DHT22;14235;48.532;8.722;2022-10-16T16:01:03;19.80;99.90
26589;DHT22;14235;48.532;8.722;2022-10-16T16:03:30;19.80;99.90
26589;DHT22;14235;48.532;8.722;2022-10-16T16:05:56;19.80;99.90
26589;DHT22;14235;48.532;8.722;2022-10-16T16:08:22;19.70;99.90
26589;DHT22;14235;48.532;8.722;2022-10-16T16:11:03;19.60;99.90
26589;DHT22;14235;48.532;8.722;2022-10-16T16:13:28;19.50;99.90
26589;DHT22;14235;48.532;8.722;2022-10-16T16:15:54;19.70;99.90
26589;DHT22;14235;48.532;8.722;2022-10-16T16:18:20;19.50;99.90
26589;DHT22;14235;48.532;8.722;2022-10-16T16:20:45;19.40;99.90
26589;DHT22;14235;48.532;8.722;2022-10-16T16:23:11;19.50;99.90
26589;DHT22;14235;48.532;8.722;2022-10-16T16:25:36;19.10;99.90
26589;DHT22;14235;48.532;8.722;2022-10-16T16:28:02;19.20;99.90
26589;DHT22;14235;48.532;8.722;2022-10-16T16:30:28;19.10;99.90
26589;DHT22;14235;48.532;8.722;2022-10-16T16:32:53;19.20;99.90
26589;DHT22;14235;48.532;8.722;2022-10-16T16:35:19;19.00;99.90
26589;DHT22;14235;48.532;8.722;2022-10-16T16:37:46;18.90;99.90
26589;DHT22;14235;48.532;8.722;2022-10-16T16:40:12;18.90;99.90
26589;DHT22;14235;48.532;8.722;2022-10-16T16:42:37;18.70;99.90
26589;DHT22;14235;48.532;8.722;2022-10-16T16:45:03;18.60;99.90
26589;DHT22;14235;48.532;8.722;2022-10-16T16:47:28;18.70;99.90
26589;DHT22;14235;48.532;8.722;2022-10-16T16:49:54;18.60;99.90
26589;DHT22;14235;48.532;8.722;2022-10-16T16:52:20;18.60;99.90
26589;DHT22;14235;48.532;8.722;2022-10-16T16:54:47;18.50;99.90
26589;DHT22;14235;48.532;8.722;2022-10-16T16:57:17;18.70;99.90
26589;DHT22;14235;48.532;8.722;2022-10-16T16:59:43;18.60;99.90
26589;DHT22;14235;48.532;8.722;2022-10-16T17:02:09;18.40;99.90
26589;DHT22;14235;48.532;8.722;2022-10-16T17:04:34;18.40;99.90
26589;DHT22;14235;48.532;8.722;2022-10-16T17:09:26;18.00;99.90
26589;DHT22;14235;48.532;8.722;2022-10-16T17:11:52;18.30;99.90
26589;DHT22;14235;48.532;8.722;2022-10-16T17:14:18;18.30;99.90
26589;DHT22;14235;48.532;8.722;2022-10-16T17:16:43;18.30;99.90
26589;DHT22;14235;48.532;8.722;2022-10-16T17:19:13;18.20;99.90
26589;DHT22;14235;48.532;8.722;2022-10-16T17:21:40;18.20;99.90
26589;DHT22;14235;48.532;8.722;2022-10-16T17:24:05;18.10;99.90
26589;DHT22;14235;48.532;8.722;2022-10-16T17:26:32;18.10;99.90
26589;DHT22;14235;48.532;8.722;2022-10-16T17:29:00;18.00;99.90
26589;DHT22;14235;48.532;8.722;2022-10-16T17:31:34;18.10;99.90
26589;DHT22;14235;48.532;8.722;2022-10-16T17:34:02;18.00;99.90
26589;DHT22;14235;48.532;8.722;2022-10-16T17:36:31;18.00;99.90
26589;DHT22;14235;48.532;8.722;2022-10-16T17:46:20;17.70;99.90
26589;DHT22;14235;48.532;8.722;2022-10-16T17:48:48;17.70;99.90
26589;DHT22;14235;48.532;8.722;2022-10-16T17:51:17;17.60;99.90
26589;DHT22;14235;48.532;8.722;2022-10-16T17:53:44;17.70;99.90
26589;DHT22;14235;48.532;8.722;2022-10-16T17:56:13;17.80;99.90
26589;DHT22;14235;48.532;8.722;2022-10-16T17:58:39;17.60;99.90
26589;DHT22;14235;48.532;8.722;2022-10-16T18:01:32;17.60;99.90
26589;DHT22;14235;48.532;8.722;2022-10-16T18:04:04;17.50;99.90
26589;DHT22;14235;48.532;8.722;2022-10-16T18:06:32;17.50;99.90
26589;DHT22;14235;48.532;8.722;2022-10-16T18:08:58;17.40;99.90
26589;DHT22;14235;48.532;8.722;2022-10-16T18:11:24;17.30;99.90
26589;DHT22;14235;48.532;8.722;2022-10-16T18:13:52;17.30;99.90
26589;DHT22;14235;48.532;8.722;2022-10-16T18:16:17;17.30;99.90
26589;DHT22;14235;48.532;8.722;2022-10-16T18:18:43;17.30;99.90
26589;DHT22;14235;48.532;8.722;2022-10-16T18:21:11;17.40;99.90
26589;DHT22;14235;48.532;8.722;2022-10-16T18:23:37;17.20;99.90
26589;DHT22;14235;48.532;8.722;2022-10-16T18:26:04;17.20;99.90
26589;DHT22;14235;48.532;8.722;2022-10-16T18:28:31;17.00;99.90
26589;DHT22;14235;48.532;8.722;2022-10-16T18:30:58;17.10;99.90
26589;DHT22;14235;48.532;8.722;2022-10-16T18:33:25;17.20;99.90
26589;DHT22;14235;48.532;8.722;2022-10-16T18:35:51;16.90;99.90
26589;DHT22;14235;48.532;8.722;2022-10-16T18:38:19;16.90;99.90
26589;DHT22;14235;48.532;8.722;2022-10-16T18:45:37;16.70;99.90
26589;DHT22;14235;48.532;8.722;2022-10-16T18:48:03;16.90;99.90
26589;DHT22;14235;48.532;8.722;2022-10-16T18:50:28;16.70;99.90
26589;DHT22;14235;48.532;8.722;2022-10-16T18:52:54;16.90;99.90
26589;DHT22;14235;48.532;8.722;2022-10-16T18:55:20;16.60;99.90
26589;DHT22;14235;48.532;8.722;2022-10-16T18:57:46;16.60;99.90
26589;DHT22;14235;48.532;8.722;2022-10-16T19:00:11;16.70;99.90
26589;DHT22;14235;48.532;8.722;2022-10-16T19:02:37;16.40;99.90
26589;DHT22;14235;48.532;8.722;2022-10-16T19:05:03;16.60;99.90
26589;DHT22;14235;48.532;8.722;2022-10-16T19:07:29;16.50;99.90
26589;DHT22;14235;48.532;8.722;2022-10-16T19:09:54;16.60;99.90
26589;DHT22;14235;48.532;8.722;2022-10-16T19:12:20;16.40;99.90
26589;DHT22;14235;48.532;8.722;2022-10-16T19:14:49;16.30;99.90
26589;DHT22;14235;48.532;8.722;2022-10-16T19:17:15;16.40;99.90
26589;DHT22;14235;48.532;8.722;2022-10-16T19:19:40;16.40;99.90
26589;DHT22;14235;48.532;8.722;2022-10-16T19:22:06;16.40;99.90
26589;DHT22;14235;48.532;8.722;2022-10-16T19:24:50;16.30;99.90
26589;DHT22;14235;48.532;8.722;2022-10-16T19:27:16;16.40;99.90
26589;DHT22;14235;48.532;8.722;2022-10-16T19:29:42;16.20;99.90
26589;DHT22;14235;48.532;8.722;2022-10-16T19:32:07;16.10;99.90
26589;DHT22;14235;48.532;8.722;2022-10-16T19:34:33;16.10;99.90
26589;DHT22;14235;48.532;8.722;2022-10-16T19:36:58;16.10;99.90
26589;DHT22;14235;48.532;8.722;2022-10-16T19:39:24;16.00;99.90
26589;DHT22;14235;48.532;8.722;2022-10-16T19:41:50;16.10;99.90
26589;DHT22;14235;48.532;8.722;2022-10-16T19:44:16;16.00;99.90
26589;DHT22;14235;48.532;8.722;2022-10-16T19:46:43;16.20;99.90
26589;DHT22;14235;48.532;8.722;2022-10-16T19:49:12;15.80;99.90
26589;DHT22;14235;48.532;8.722;2022-10-16T19:51:38;15.90;99.90
26589;DHT22;14235;48.532;8.722;2022-10-16T19:54:10;15.90;99.90
26589;DHT22;14235;48.532;8.722;2022-10-16T19:56:36;16.00;99.90
26589;DHT22;14235;48.532;8.722;2022-10-16T19:59:03;16.00;99.90
26589;DHT22;14235;48.532;8.722;2022-10-16T20:01:30;16.00;99.90
26589;DHT22;14235;48.532;8.722;2022-10-16T20:03:56;15.80;99.90
26589;DHT22;14235;48.532;8.722;2022-10-16T20:06:22;15.50;99.90
26589;DHT22;14235;48.532;8.722;2022-10-16T20:08:49;15.70;99.90
26589;DHT22;14235;48.532;8.722;2022-10-16T20:11:18;15.70;99.90
26589;DHT22;14235;48.532;8.722;2022-10-16T20:13:44;15.70;99.90
26589;DHT22;14235;48.532;8.722;2022-10-16T20:16:11;15.70;99.90
26589;DHT22;14235;48.532;8.722;2022-10-16T20:18:38;15.50;99.90
26589;DHT22;14235;48.532;8.722;2022-10-16T20:21:15;15.50;99.90
26589;DHT22;14235;48.532;8.722;2022-10-16T20:23:41;15.30;99.90
26589;DHT22;14235;48.532;8.722;2022-10-16T20:26:08;15.50;99.90
26589;DHT22;14235;48.532;8.722;2022-10-16T20:28:38;15.30;99.90
26589;DHT22;14235;48.532;8.722;2022-10-16T20:31:08;15.40;99.90
26589;DHT22;14235;48.532;8.722;2022-10-16T20:33:36;15.30;99.90
26589;DHT22;14235;48.532;8.722;2022-10-16T20:36:02;15.40;99.90
26589;DHT22;14235;48.532;8.722;2022-10-16T20:38:28;15.20;99.90
26589;DHT22;14235;48.532;8.722;2022-10-16T20:41:03;15.30;99.90
26589;DHT22;14235;48.532;8.722;2022-10-16T20:43:29;15.10;99.90
26589;DHT22;14235;48.532;8.722;2022-10-16T20:45:59;15.20;99.90
26589;DHT22;14235;48.532;8.722;2022-10-16T20:48:25;15.20;99.90
26589;DHT22;14235;48.532;8.722;2022-10-16T20:50:52;15.20;99.90
26589;DHT22;14235;48.532;8.722;2022-10-16T20:53:17;15.10;99.90
26589;DHT22;14235;48.532;8.722;2022-10-16T20:55:43;15.30;99.90
26589;DHT22;14235;48.532;8.722;2022-10-16T20:58:09;15.10;99.90